Time;durP1;ratioP1;P1;durP2;ratioP2;P2;SDS_P1;SDS_P2;PMS_P1;PMS_P2;Temp;Humidity;BMP_temperature;BMP_pressure;BME280_temperature;BME280_humidity;BME280_pressure;Samples;Min_cycle;Max_cycle;Signal;HPM_P1;HPM_P2
2021/08/21 00:02:13;;;;;;;14.95;11.20;;;;;;;17.90;77.42;93251.94;5110078;28;20058;-81
2021/08/21 00:04:40;;;;;;;11.90;10.05;;;;;;;17.78;78.23;93249.56;5109956;28;20493;-81
2021/08/21 00:07:07;;;;;;;14.65;10.05;;;;;;;17.75;78.82;93261.25;5110303;28;20047;-80
2021/08/21 00:09:35;;;;;;;11.82;10.55;;;;;;;17.65;79.36;93261.19;5109978;28;20048;-79
2021/08/21 00:12:01;;;;;;;14.70;10.85;;;;;;;17.59;79.83;93262.19;5110263;28;20055;-79
2021/08/21 00:14:28;;;;;;;14.45;10.95;;;;;;;17.64;79.60;93259.63;5109946;28;20051;-80
2021/08/21 00:16:56;;;;;;;14.50;11.05;;;;;;;17.59;80.34;93255.16;5109986;28;20077;-79
2021/08/21 00:19:23;;;;;;;16.30;10.23;;;;;;;17.61;79.86;93252.31;5109784;28;20040;-79
2021/08/21 00:21:50;;;;;;;13.50;11.15;;;;;;;17.57;80.27;93261.66;5110094;28;20058;-79
2021/08/21 00:24:17;;;;;;;12.43;9.75;;;;;;;17.55;80.52;93256.69;5110208;28;20053;-79
2021/08/21 00:26:44;;;;;;;16.15;10.77;;;;;;;17.54;80.50;93255.13;5110135;28;20044;-79
2021/08/21 00:29:12;;;;;;;12.77;10.93;;;;;;;17.56;80.42;93254.91;5109935;28;20066;-79
2021/08/21 00:31:39;;;;;;;14.70;11.95;;;;;;;17.62;79.84;93262.47;5109844;28;20142;-79
2021/08/21 00:34:07;;;;;;;15.20;11.07;;;;;;;17.58;80.69;93256.22;5110041;28;20044;-79
2021/08/21 00:36:34;;;;;;;14.45;9.93;;;;;;;17.59;79.61;93255.16;5109649;28;20051;-79
2021/08/21 00:39:01;;;;;;;14.73;10.55;;;;;;;17.59;80.33;93251.81;5109830;28;20059;-79
2021/08/21 00:41:28;;;;;;;17.95;11.77;;;;;;;17.50;80.63;93247.06;5109647;28;20053;-79
2021/08/21 00:43:55;;;;;;;14.23;10.70;;;;;;;17.45;80.26;93247.03;5109553;28;20055;-79
2021/08/21 00:46:22;;;;;;;13.55;10.57;;;;;;;17.45;80.53;93257.44;5109614;28;20055;-79
2021/08/21 00:48:49;;;;;;;15.05;10.32;;;;;;;17.45;80.35;93254.84;5109816;28;20048;-79
2021/08/21 00:51:17;;;;;;;17.20;11.40;;;;;;;17.39;81.09;93253.25;5109510;28;20055;-79
2021/08/21 00:53:44;;;;;;;14.38;10.65;;;;;;;17.41;80.28;93255.59;5109809;28;20063;-78
2021/08/21 00:56:11;;;;;;;14.70;11.75;;;;;;;17.25;80.82;93242.50;5109884;28;20050;-78
2021/08/21 00:58:38;;;;;;;15.68;11.45;;;;;;;17.11;81.48;93236.97;5109700;28;20104;-78
2021/08/21 01:01:05;;;;;;;14.70;11.50;;;;;;;17.13;82.23;93258.25;5110369;28;20047;-78
2021/08/21 01:03:32;;;;;;;18.08;12.02;;;;;;;17.10;82.73;93266.56;5113900;28;20047;-78
2021/08/21 01:05:59;;;;;;;17.15;11.57;;;;;;;17.14;81.94;93265.03;5113766;28;20054;-78
2021/08/21 01:08:27;;;;;;;18.13;11.50;;;;;;;17.16;81.91;93269.97;5113943;28;20051;-78
2021/08/21 01:10:54;;;;;;;21.70;11.82;;;;;;;17.14;81.88;93269.44;5113745;28;20043;-79
2021/08/21 01:13:21;;;;;;;16.80;11.85;;;;;;;17.18;81.61;93273.88;5113700;28;20056;-79
2021/08/21 01:15:48;;;;;;;18.13;12.57;;;;;;;17.13;82.15;93267.88;5110727;28;20043;-79
2021/08/21 01:18:15;;;;;;;16.83;11.82;;;;;;;17.18;81.74;93273.88;5111742;28;20036;-79
2021/08/21 01:20:42;;;;;;;21.08;12.35;;;;;;;17.19;81.36;93272.06;5112285;28;20526;-79
2021/08/21 01:23:09;;;;;;;16.45;11.57;;;;;;;17.25;81.08;93284.06;5113075;28;20047;-79
2021/08/21 01:25:37;;;;;;;18.10;11.10;;;;;;;17.24;80.98;93282.50;5113339;28;20056;-79
2021/08/21 01:28:06;;;;;;;16.42;11.50;;;;;;;17.24;81.01;93282.50;5113281;28;20048;-79
2021/08/21 01:30:33;;;;;;;15.38;10.80;;;;;;;17.32;80.62;93283.84;5113284;28;20085;-79
2021/08/21 01:32:59;;;;;;;19.35;11.55;;;;;;;17.30;80.67;93281.50;5113213;28;20047;-79
2021/08/21 01:35:26;;;;;;;18.30;12.13;;;;;;;17.33;80.70;93283.59;5113135;28;20059;-79
2021/08/21 01:37:53;;;;;;;17.50;11.52;;;;;;;17.29;80.58;93272.16;5112767;28;20055;-78
2021/08/21 01:40:20;;;;;;;16.23;12.15;;;;;;;17.32;80.64;93276.81;5112951;28;20047;-79
2021/08/21 01:42:47;;;;;;;21.73;11.57;;;;;;;17.34;80.65;93279.97;5112868;28;20062;-79
2021/08/21 01:45:15;;;;;;;18.40;11.35;;;;;;;17.34;80.96;93279.97;5112892;28;20052;-79
2021/08/21 01:47:44;;;;;;;16.20;12.48;;;;;;;17.25;81.50;93278.84;5112618;28;20043;-79
2021/08/21 01:50:16;;;;;;;18.10;12.63;;;;;;;17.18;82.64;93281.66;5113370;28;20100;-79
2021/08/21 01:52:44;;;;;;;17.48;11.88;;;;;;;17.12;81.77;93269.69;5112924;28;20089;-79
2021/08/21 01:55:12;;;;;;;17.55;11.52;;;;;;;17.19;81.18;93262.47;5112895;28;20096;-79
2021/08/21 01:57:40;;;;;;;17.90;11.30;;;;;;;17.31;80.89;93266.72;5112692;28;20055;-79
2021/08/21 02:00:08;;;;;;;18.33;12.05;;;;;;;17.41;81.17;93284.16;5112849;28;20100;-80
2021/08/21 02:02:37;;;;;;;18.25;12.52;;;;;;;17.31;81.26;93266.72;5112441;28;20051;-80
2021/08/21 02:05:05;;;;;;;15.93;11.82;;;;;;;17.35;81.93;93285.94;5112417;28;20516;-80
2021/08/21 02:07:32;;;;;;;15.73;11.30;;;;;;;17.33;81.59;93282.81;5112448;28;20051;-80
2021/08/21 02:09:59;;;;;;;17.65;11.77;;;;;;;17.40;80.94;93277.41;5112134;28;20484;-80
2021/08/21 02:12:26;;;;;;;14.63;10.93;;;;;;;17.40;81.20;93270.38;5111865;28;20044;-79
2021/08/21 02:14:53;;;;;;;16.52;11.48;;;;;;;17.41;80.93;93271.94;5112090;28;20092;-79
2021/08/21 02:17:20;;;;;;;16.73;11.80;;;;;;;17.41;81.08;93279.72;5112093;28;20549;-78
2021/08/21 02:19:48;;;;;;;15.25;11.90;;;;;;;17.34;82.10;93279.97;5112590;28;20075;-78
2021/08/21 02:22:16;;;;;;;17.08;11.88;;;;;;;17.27;81.64;93274.19;5112351;28;20488;-78
2021/08/21 02:24:51;;;;;;;18.80;11.52;;;;;;;17.33;81.53;93275.00;5112021;28;20484;-79
2021/08/21 02:27:21;;;;;;;15.57;10.57;;;;;;;17.41;81.27;93265.97;5111926;28;20058;-79
2021/08/21 02:29:48;;;;;;;16.38;11.20;;;;;;;17.43;81.43;93267.28;5112050;28;20105;-79
2021/08/21 02:32:15;;;;;;;18.27;12.38;;;;;;;17.28;81.12;93239.44;5111781;28;20514;-80
2021/08/21 02:34:42;;;;;;;18.15;12.52;;;;;;;17.27;81.22;93242.28;5111832;28;20055;-80
2021/08/21 02:37:12;;;;;;;14.40;10.55;;;;;;;17.41;81.72;93271.19;5111844;28;20492;-79
2021/08/21 02:39:39;;;;;;;15.07;11.20;;;;;;;17.35;82.29;93271.13;5111822;28;20039;-79
2021/08/21 02:42:06;;;;;;;19.10;12.18;;;;;;;17.23;83.05;93273.91;5111739;28;20051;-79
2021/08/21 02:44:33;;;;;;;17.15;11.60;;;;;;;17.09;84.03;93270.19;5111645;28;20504;-79
2021/08/21 02:47:00;;;;;;;13.68;10.30;;;;;;;16.82;83.42;93245.03;5111743;28;20135;-78
2021/08/21 02:49:26;;;;;;;14.07;11.00;;;;;;;16.98;83.94;93282.25;5111628;28;20050;-78
2021/08/21 02:51:53;;;;;;;16.83;11.63;;;;;;;16.91;84.53;93277.28;5111864;28;20055;-79
2021/08/21 02:54:21;;;;;;;15.05;11.85;;;;;;;16.90;85.36;93282.72;5111441;28;20050;-79
2021/08/21 02:56:48;;;;;;;14.43;11.82;;;;;;;16.87;84.76;93284.00;5111698;28;20040;-78
2021/08/21 02:59:15;;;;;;;15.98;11.52;;;;;;;16.82;85.69;93273.59;5111335;28;20047;-78
2021/08/21 03:01:42;;;;;;;15.15;11.65;;;;;;;16.74;86.08;93285.19;5111221;28;20044;-79
2021/08/21 03:04:09;;;;;;;14.48;11.48;;;;;;;16.69;86.63;93287.72;5111271;28;20079;-79
2021/08/21 03:06:36;;;;;;;16.10;11.90;;;;;;;16.61;86.59;93281.16;5111199;28;20408;-78
2021/08/21 03:09:02;;;;;;;15.43;11.52;;;;;;;16.63;86.01;93286.13;5111245;28;20104;-79
2021/08/21 03:11:31;;;;;;;16.65;11.93;;;;;;;16.61;86.26;93283.75;5111299;28;20109;-79
2021/08/21 03:13:58;;;;;;;15.80;11.60;;;;;;;16.60;87.29;93289.19;5111014;28;20055;-79
2021/08/21 03:16:25;;;;;;;13.23;10.95;;;;;;;16.60;86.52;93289.19;5111250;28;20349;-79
2021/08/21 03:18:52;;;;;;;18.08;12.38;;;;;;;16.65;85.94;93294.44;5111345;28;20075;-79
2021/08/21 03:21:18;;;;;;;14.82;11.85;;;;;;;16.62;86.22;93290.50;5111087;28;20066;-79
2021/08/21 03:23:45;;;;;;;16.63;11.95;;;;;;;16.65;86.78;93290.03;5110922;28;20540;-80
2021/08/21 03:26:12;;;;;;;18.45;12.63;;;;;;;16.45;86.14;93258.72;5111351;28;20056;-80
2021/08/21 03:28:41;;;;;;;22.88;12.65;;;;;;;16.59;85.94;93270.28;5110818;28;20044;-80
2021/08/21 03:31:08;;;;;;;14.15;11.98;;;;;;;16.60;85.67;93278.81;5110647;28;20102;-80
2021/08/21 03:33:35;;;;;;;20.23;12.60;;;;;;;16.63;85.55;93273.94;5111254;28;20056;-79
2021/08/21 03:36:01;;;;;;;20.15;11.95;;;;;;;16.68;85.91;93289.53;5110596;28;20047;-80
2021/08/21 03:38:28;;;;;;;15.80;12.35;;;;;;;16.58;86.05;93283.47;5110914;28;20055;-79
2021/08/21 03:40:55;;;;;;;19.90;11.85;;;;;;;16.39;87.01;93286.41;5110789;28;20094;-79
2021/08/21 03:43:22;;;;;;;19.15;12.63;;;;;;;16.39;87.26;93297.56;5110688;28;20058;-79
2021/08/21 03:45:50;;;;;;;13.05;11.35;;;;;;;16.32;88.01;93303.94;5110420;28;20096;-80
2021/08/21 03:48:17;;;;;;;19.02;11.85;;;;;;;16.35;87.46;93304.25;5110233;28;20044;-80
2021/08/21 03:50:44;;;;;;;16.33;11.77;;;;;;;16.37;87.34;93307.38;5110325;28;20488;-79
2021/08/21 03:53:11;;;;;;;19.60;11.57;;;;;;;16.29;87.62;93295.63;5110755;28;20120;-80
2021/08/21 03:55:38;;;;;;;15.98;12.32;;;;;;;16.34;87.69;93315.63;5110180;28;20559;-80
2021/08/21 03:58:04;;;;;;;17.98;12.38;;;;;;;16.25;87.90;93310.09;5110168;28;20512;-79
2021/08/21 04:00:32;;;;;;;24.90;13.05;;;;;;;16.32;88.30;93322.88;5110145;28;20481;-80
2021/08/21 04:03:00;;;;;;;21.38;12.85;;;;;;;16.26;87.79;93316.06;5110050;28;20134;-80
2021/08/21 04:05:29;;;;;;;20.75;12.57;;;;;;;16.34;87.70;93325.25;5110170;28;20039;-80
2021/08/21 04:07:56;;;;;;;23.52;13.18;;;;;;;16.39;87.48;93333.06;5110519;28;20054;-80
2021/08/21 04:10:23;;;;;;;20.20;13.63;;;;;;;16.41;87.37;93326.63;5106059;28;20388;-79
2021/08/21 04:12:50;;;;;;;23.45;15.02;;;;;;;16.47;87.15;93331.88;5097784;28;20055;-79
2021/08/21 04:15:17;;;;;;;22.67;13.30;;;;;;;16.49;87.59;93327.22;5100051;28;20040;-79
2021/08/21 04:17:43;;;;;;;22.52;13.30;;;;;;;16.43;87.76;93327.16;5098480;28;20044;-79
2021/08/21 04:20:12;;;;;;;17.73;12.98;;;;;;;16.41;88.64;93333.59;5099686;28;20047;-79
2021/08/21 04:22:39;;;;;;;18.50;14.70;;;;;;;16.29;88.78;93318.16;5099876;28;20075;-79
2021/08/21 04:25:07;;;;;;;17.75;13.63;;;;;;;16.40;88.53;93332.03;5102154;28;20044;-80
2021/08/21 04:27:45;;;;;;;18.10;13.02;;;;;;;16.05;88.16;93271.03;5107119;28;20035;-81
2021/08/21 04:30:13;;;;;;;19.33;13.93;;;;;;;16.50;87.69;93329.56;5105432;27;20047;-81
2021/08/21 04:32:40;;;;;;;18.15;13.40;;;;;;;16.56;87.68;93332.97;5101429;27;20136;-80
2021/08/21 04:35:08;;;;;;;20.65;13.35;;;;;;;16.67;86.92;93339.06;5105134;28;20051;-81
2021/08/21 04:37:36;;;;;;;30.40;14.32;;;;;;;16.75;87.15;93343.03;5123556;27;20060;-80
2021/08/21 04:40:03;;;;;;;33.35;14.88;;;;;;;16.77;87.45;93339.19;5130432;28;20051;-80
2021/08/21 04:42:31;;;;;;;22.17;13.90;;;;;;;16.79;87.10;93336.31;5130599;28;20051;-80
2021/08/21 04:44:59;;;;;;;19.00;12.43;;;;;;;16.68;89.28;93335.44;5125508;28;20063;-79
2021/08/21 04:47:26;;;;;;;17.33;13.75;;;;;;;16.48;90.26;93334.19;5109623;28;20125;-80
2021/08/21 04:49:53;;;;;;;16.30;12.85;;;;;;;16.55;90.10;93339.19;5109847;28;20047;-80
2021/08/21 04:52:19;;;;;;;16.58;12.95;;;;;;;16.53;88.70;93323.88;5109734;28;20051;-80
2021/08/21 04:54:48;;;;;;;23.27;13.35;;;;;;;16.77;88.33;93343.56;5109529;28;20058;-80
2021/08/21 04:57:15;;;;;;;18.65;12.50;;;;;;;16.82;88.05;93346.97;5109928;28;20058;-80
2021/08/21 04:59:42;;;;;;;19.52;13.38;;;;;;;16.94;86.63;93338.28;5109867;28;20048;-80
2021/08/21 05:02:09;;;;;;;15.63;12.27;;;;;;;17.05;85.97;93346.97;5109309;28;20089;-80
2021/08/21 05:04:36;;;;;;;20.83;13.27;;;;;;;17.13;85.67;93340.53;5109333;28;20573;-80
2021/08/21 05:07:03;;;;;;;19.40;12.60;;;;;;;17.17;84.76;93326.81;5109243;28;20052;-79
2021/08/21 05:09:30;;;;;;;16.67;11.52;;;;;;;17.38;84.56;93345.16;5109398;28;20056;-80
2021/08/21 05:11:58;;;;;;;14.18;11.95;;;;;;;17.39;85.21;93343.34;5109366;28;20807;-80
2021/08/21 05:14:25;;;;;;;16.70;12.95;;;;;;;17.26;86.35;93345.31;5109395;28;20431;-80
2021/08/21 05:16:52;;;;;;;22.48;16.10;;;;;;;17.27;86.36;93351.31;5109305;28;20492;-79
2021/08/21 05:19:27;;;;;;;14.80;12.88;;;;;;;17.17;85.93;93350.19;5109476;28;20737;-80
2021/08/21 05:21:57;;;;;;;19.45;13.43;;;;;;;17.13;87.22;93356.13;5109518;28;20129;-80
2021/08/21 05:24:23;;;;;;;16.60;11.95;;;;;;;16.93;88.07;93352.28;5109194;28;20040;-80
2021/08/21 05:26:50;;;;;;;22.35;14.70;;;;;;;16.90;88.35;93357.97;5109157;28;20047;-80
2021/08/21 05:29:19;;;;;;;21.52;14.95;;;;;;;16.86;89.11;93354.28;5108926;28;20052;-80
2021/08/21 05:31:46;;;;;;;22.80;15.95;;;;;;;16.69;89.13;93337.81;5108982;28;20058;-80
2021/08/21 05:34:14;;;;;;;26.90;15.70;;;;;;;16.97;89.06;93361.13;5109133;28;20431;-80
2021/08/21 05:36:40;;;;;;;22.65;15.45;;;;;;;17.21;86.14;93359.03;5108228;28;20036;-80
2021/08/21 05:39:09;;;;;;;24.50;16.80;;;;;;;17.45;84.91;93337.94;5109222;28;20052;-80
2021/08/21 05:41:36;;;;;;;32.53;18.45;;;;;;;17.77;84.02;93355.28;5109082;28;20067;-80
2021/08/21 05:44:03;;;;;;;29.48;16.70;;;;;;;17.89;83.73;93354.31;5109307;28;20462;-81
2021/08/21 05:46:31;;;;;;;27.40;15.93;;;;;;;18.12;83.05;93354.97;5109015;28;20054;-81
2021/08/21 05:48:58;;;;;;;31.15;17.85;;;;;;;18.33;81.84;93353.25;5110674;28;20047;-80
2021/08/21 05:51:25;;;;;;;33.30;18.30;;;;;;;18.41;81.58;93363.16;5108959;28;20039;-81
2021/08/21 05:53:52;;;;;;;33.35;18.85;;;;;;;18.33;81.50;93337.63;5110730;28;21427;-81
2021/08/21 05:56:18;;;;;;;37.17;19.02;;;;;;;18.69;79.85;93355.97;5111314;28;20059;-80
2021/08/21 05:58:45;;;;;;;37.15;20.58;;;;;;;18.88;78.39;93346.91;5112326;28;20048;-80
2021/08/21 06:01:12;;;;;;;47.70;22.23;;;;;;;19.22;76.92;93359.47;5112631;28;20055;-81
2021/08/21 06:03:40;;;;;;;45.85;23.73;;;;;;;19.58;75.47;93364.66;5112284;28;20408;-82
2021/08/21 06:06:11;;;;;;;45.65;24.45;;;;;;;19.72;74.27;93345.91;5111816;28;20416;-82
2021/08/21 06:08:38;;;;;;;44.78;23.80;;;;;;;20.18;72.34;93368.47;5112334;28;20073;-82
2021/08/21 06:11:04;;;;;;;46.97;24.20;;;;;;;20.48;71.33;93361.59;5112149;28;20112;-82
2021/08/21 06:13:31;;;;;;;47.15;24.58;;;;;;;20.68;69.62;93359.94;5112002;28;20393;-83
2021/08/21 06:15:58;;;;;;;49.78;22.55;;;;;;;21.03;68.20;93366.03;5111968;28;20507;-84
2021/08/21 06:18:25;;;;;;;44.35;19.45;;;;;;;21.17;66.94;93361.00;5112288;28;20040;-84
2021/08/21 06:20:53;;;;;;;30.45;16.52;;;;;;;20.87;64.88;93318.34;5111984;28;20053;-84
2021/08/21 06:23:20;;;;;;;32.15;15.85;;;;;;;21.20;62.85;93351.81;5111723;28;20051;-85
2021/08/21 06:25:47;;;;;;;38.85;18.73;;;;;;;21.31;64.11;93366.38;5112329;28;20399;-84
2021/08/21 06:28:14;;;;;;;35.95;18.20;;;;;;;21.56;64.25;93359.38;5112029;28;20116;-83
2021/08/21 06:30:41;;;;;;;30.55;17.77;;;;;;;21.79;62.51;93369.41;5111863;28;20059;-85
2021/08/21 06:33:08;;;;;;;26.35;14.80;;;;;;;21.52;61.87;93370.66;5111633;28;20043;-84
2021/08/21 06:35:35;;;;;;;30.45;16.55;;;;;;;21.75;61.75;93354.25;5112029;28;20059;-84
2021/08/21 06:38:03;;;;;;;25.23;13.35;;;;;;;21.82;59.63;93327.81;5091234;28;20052;-84
2021/08/21 06:40:30;;;;;;;23.58;12.35;;;;;;;21.12;60.36;93321.06;5091432;28;20048;-84
2021/08/21 06:42:57;;;;;;;24.88;11.82;;;;;;;21.51;60.13;93363.88;5090828;28;20141;-84
2021/08/21 06:45:26;;;;;;;26.73;13.80;;;;;;;21.08;60.92;93313.78;5091153;28;20493;-84
2021/08/21 06:47:55;;;;;;;24.45;13.25;;;;;;;21.58;61.14;93364.31;5091037;28;20055;-84
2021/08/21 06:50:23;;;;;;;26.50;13.23;;;;;;;21.93;60.17;93359.84;5091402;28;20048;-84
2021/08/21 06:52:51;;;;;;;24.08;12.07;;;;;;;21.90;58.23;93334.25;5097197;28;20130;-85
2021/08/21 06:55:20;;;;;;;23.58;11.43;;;;;;;22.49;58.55;93341.19;5110993;27;20047;-84
2021/08/21 06:57:47;;;;;;;21.42;12.13;;;;;;;23.01;57.34;93351.00;5111658;28;20069;-85
2021/08/21 07:00:14;;;;;;;22.42;12.45;;;;;;;23.02;54.96;93358.59;5111171;28;20043;-85
2021/08/21 07:02:41;;;;;;;28.90;12.90;;;;;;;22.93;55.37;93276.47;5111586;28;20055;-84
2021/08/21 07:05:11;;;;;;;25.27;13.30;;;;;;;23.58;53.42;93310.81;5111195;28;20393;-85
2021/08/21 07:07:37;;;;;;;33.88;14.65;;;;;;;24.23;54.12;93348.50;5111144;28;20074;-84
2021/08/21 07:10:06;;;;;;;21.92;12.23;;;;;;;24.22;51.45;93302.34;5111079;28;20506;-85
2021/08/21 07:12:34;;;;;;;24.02;10.93;;;;;;;24.91;50.21;93337.44;5111195;28;20043;-84
2021/08/21 07:15:02;;;;;;;18.27;11.38;;;;;;;25.26;49.64;93344.81;5111057;27;20051;-84
2021/08/21 07:17:28;;;;;;;17.75;10.02;;;;;;;25.43;48.35;93319.69;5110883;28;20542;-85
2021/08/21 07:19:55;;;;;;;20.70;10.95;;;;;;;25.76;47.73;93314.19;5110886;28;20047;-84
2021/08/21 07:22:22;;;;;;;15.73;8.93;;;;;;;25.60;46.25;93277.75;5111186;28;20053;-85
2021/08/21 07:24:49;;;;;;;14.75;8.90;;;;;;;25.82;44.86;93294.53;5110876;28;20048;-85
2021/08/21 07:27:16;;;;;;;17.35;8.20;;;;;;;26.39;45.25;93337.03;5111427;28;20395;-84
2021/08/21 07:29:44;;;;;;;20.85;9.20;;;;;;;26.59;44.44;93308.53;5110778;28;20052;-83
2021/08/21 07:32:11;;;;;;;19.05;8.90;;;;;;;26.93;44.44;93343.94;5110540;28;20066;-84
2021/08/21 07:34:38;;;;;;;14.70;8.77;;;;;;;26.92;43.18;93351.09;5110429;28;20048;-85
2021/08/21 07:37:05;;;;;;;15.38;7.70;;;;;;;26.99;42.90;93337.47;5110342;28;20062;-84
2021/08/21 07:39:32;;;;;;;14.43;8.65;;;;;;;26.74;42.37;93292.28;5110704;28;20435;-84
2021/08/21 07:41:59;;;;;;;14.13;7.38;;;;;;;26.80;41.44;93343.75;5110419;28;20047;-83
2021/08/21 07:44:26;;;;;;;12.75;7.13;;;;;;;26.80;43.08;93356.94;5110366;28;20054;-84
2021/08/21 07:46:54;;;;;;;12.45;6.65;;;;;;;26.83;42.87;93358.19;5102980;28;20048;-83
2021/08/21 07:49:21;;;;;;;13.88;6.35;;;;;;;26.02;43.56;93361.66;5090163;28;20052;-83
2021/08/21 07:51:48;;;;;;;12.70;7.15;;;;;;;25.70;44.84;93363.53;5089772;28;20055;-83
2021/08/21 07:54:15;;;;;;;10.23;6.97;;;;;;;25.88;45.55;93343.31;5089697;28;20055;-83
2021/08/21 07:56:42;;;;;;;11.10;6.47;;;;;;;25.64;46.55;93356.81;5090116;28;20043;-84
2021/08/21 07:59:09;;;;;;;10.18;6.70;;;;;;;25.89;45.58;93347.50;5089750;28;20717;-84
2021/08/21 08:01:36;;;;;;;13.65;6.60;;;;;;;26.21;46.12;93344.06;5097400;28;20044;-84
2021/08/21 08:04:04;;;;;;;11.38;6.63;;;;;;;26.30;45.71;93362.56;5096670;28;20056;-84
2021/08/21 08:06:33;;;;;;;10.13;6.13;;;;;;;26.29;47.64;93359.16;5097198;28;20047;-84
2021/08/21 08:09:01;;;;;;;12.23;6.70;;;;;;;26.64;48.34;93366.34;5110145;28;20051;-84
2021/08/21 08:11:28;;;;;;;7.60;6.57;;;;;;;26.31;49.04;93340.41;5109226;28;20412;-84
2021/08/21 08:13:55;;;;;;;10.05;6.60;;;;;;;25.48;49.13;93311.69;5110092;28;20420;-84
2021/08/21 08:16:22;;;;;;;13.20;5.88;;;;;;;26.09;48.95;93337.53;5110050;28;20493;-84
2021/08/21 08:18:49;;;;;;;9.88;6.35;;;;;;;26.42;48.86;93353.00;5109843;28;20054;-85
2021/08/21 08:21:18;;;;;;;10.02;6.03;;;;;;;26.75;48.69;93346.53;5109997;28;20126;-85
2021/08/21 08:23:45;;;;;;;11.30;6.45;;;;;;;27.00;46.53;93349.53;5109819;28;20394;-84
2021/08/21 08:26:12;;;;;;;11.00;6.05;;;;;;;27.13;46.56;93328.59;5110018;28;20047;-83
2021/08/21 08:28:39;;;;;;;13.05;6.70;;;;;;;27.26;45.80;93332.91;5109544;28;20047;-85
2021/08/21 08:31:06;;;;;;;14.15;6.03;;;;;;;27.23;46.55;93351.22;5109773;28;20779;-85
2021/08/21 08:33:34;;;;;;;9.98;6.00;;;;;;;27.05;47.03;93330.16;5109627;28;20504;-85
2021/08/21 08:36:01;;;;;;;10.52;6.45;;;;;;;26.69;47.00;93358.31;5109699;28;20074;-83
2021/08/21 08:38:29;;;;;;;10.15;6.05;;;;;;;27.02;47.41;93344.72;5109734;28;20059;-84
2021/08/21 08:40:56;;;;;;;9.27;5.97;;;;;;;26.87;46.26;93316.94;5109533;28;20070;-84
2021/08/21 08:43:25;;;;;;;11.45;7.00;;;;;;;27.51;46.25;93341.13;5109857;28;20415;-84
2021/08/21 08:45:52;;;;;;;10.20;6.03;;;;;;;27.84;45.13;93339.81;5109738;28;20046;-84
2021/08/21 08:48:18;;;;;;;9.13;6.10;;;;;;;27.91;45.04;93337.44;5109628;28;20044;-83
2021/08/21 08:50:46;;;;;;;9.20;5.47;;;;;;;28.39;42.80;93350.66;5109695;28;20051;-84
2021/08/21 08:53:13;;;;;;;11.43;6.32;;;;;;;28.01;43.19;93333.72;5109600;28;20051;-84
2021/08/21 08:55:42;;;;;;;10.77;6.22;;;;;;;26.58;45.71;93355.22;5109157;28;20044;-83
2021/08/21 08:58:08;;;;;;;10.85;6.43;;;;;;;26.86;44.84;93343.59;5109632;28;20043;-84
2021/08/21 09:00:35;;;;;;;12.20;5.95;;;;;;;27.21;46.34;93341.78;5109247;28;20495;-82
2021/08/21 09:03:04;;;;;;;10.50;5.78;;;;;;;27.49;43.42;93327.44;5109179;28;20437;-84
2021/08/21 09:05:38;;;;;;;13.30;6.50;;;;;;;27.41;44.08;93346.72;5109196;28;20126;-82
2021/08/21 09:08:23;;;;;;;10.30;7.28;;;;;;;26.96;46.06;93332.78;5109133;28;20079;-85
2021/08/21 09:10:52;;;;;;;14.93;6.55;;;;;;;26.95;45.12;93294.34;5109179;28;20055;-85
2021/08/21 09:13:19;;;;;;;9.77;6.22;;;;;;;27.46;44.91;93333.38;5108839;28;20048;-85
2021/08/21 09:15:48;;;;;;;12.68;6.22;;;;;;;27.15;43.71;93319.28;5109109;28;20058;-86
2021/08/21 09:18:17;;;;;;;10.63;6.15;;;;;;;27.85;43.44;93323.66;5109107;28;20051;-86
2021/08/21 09:20:59;;;;;;;9.32;6.15;;;;;;;27.99;42.44;93323.47;5109395;28;20055;-85
2021/08/21 09:23:31;;;;;;;10.18;6.30;;;;;;;28.02;41.88;93279.81;5112118;28;20059;-86
2021/08/21 09:26:08;;;;;;;10.38;5.90;;;;;;;28.85;41.38;93320.97;5113354;27;20039;-84
2021/08/21 09:28:37;;;;;;;11.20;5.97;;;;;;;28.73;39.44;93290.00;5113295;28;20050;-85
2021/08/21 09:31:06;;;;;;;8.20;4.38;;;;;;;28.07;36.78;93316.59;5113155;28;20062;-85
2021/08/21 09:33:34;;;;;;;7.63;4.10;;;;;;;27.95;36.54;93316.50;5112944;28;20054;-84
2021/08/21 09:36:01;;;;;;;4.43;3.28;;;;;;;27.63;37.04;93303.53;5116465;27;20043;-83
2021/08/21 09:38:30;;;;;;;6.40;3.58;;;;;;;27.58;36.92;93301.06;5133588;27;20047;-83
2021/08/21 09:41:02;;;;;;;6.63;3.80;;;;;;;27.98;37.48;93289.44;5133416;27;20047;-83
2021/08/21 09:43:32;;;;;;;6.22;3.85;;;;;;;27.92;36.46;93314.47;5133528;27;20127;-81
2021/08/21 09:46:11;;;;;;;6.53;3.67;;;;;;;28.11;36.07;93299.03;5133103;27;20043;-85
2021/08/21 09:49:03;;;;;;;7.75;4.03;;;;;;;28.53;36.66;93313.44;5133483;27;20043;-84
2021/08/21 09:51:43;;;;;;;6.70;3.47;;;;;;;28.49;34.02;93323.06;5133697;27;20054;-86
2021/08/21 09:54:13;;;;;;;6.55;3.72;;;;;;;28.21;34.80;93281.25;5133359;27;20055;-85
2021/08/21 09:56:42;;;;;;;5.75;3.55;;;;;;;28.41;34.61;93314.91;5133377;27;20059;-84
2021/08/21 09:59:10;;;;;;;8.18;3.72;;;;;;;28.27;35.11;93320.41;5133093;27;20530;-84
2021/08/21 10:01:37;;;;;;;8.07;4.00;;;;;;;28.90;34.58;93295.16;5133318;27;20094;-83
2021/08/21 10:04:05;;;;;;;5.25;3.75;;;;;;;28.55;33.20;93316.50;5133055;27;20078;-85
2021/08/21 10:06:32;;;;;;;8.30;4.25;;;;;;;28.65;33.17;93310.84;5133380;27;20051;-85
2021/08/21 10:09:03;;;;;;;6.45;3.97;;;;;;;29.28;33.82;93317.22;5132689;27;20051;-83
2021/08/21 10:11:30;;;;;;;7.72;3.30;;;;;;;29.02;33.08;93297.06;5133028;27;20131;-84
2021/08/21 10:13:57;;;;;;;5.72;3.60;;;;;;;28.24;33.11;93291.22;5132879;27;20043;-85
2021/08/21 10:16:29;;;;;;;6.47;3.50;;;;;;;28.46;32.91;93299.97;5133022;27;20074;-83
2021/08/21 10:18:57;;;;;;;6.47;4.13;;;;;;;28.74;32.49;93286.25;5133422;27;20104;-84
2021/08/21 10:21:24;;;;;;;6.93;3.97;;;;;;;28.44;33.03;93313.47;5133034;27;20047;-83
2021/08/21 10:23:53;;;;;;;5.28;4.25;;;;;;;28.59;33.27;93316.66;5116120;27;20047;-83
2021/08/21 10:26:28;;;;;;;5.78;4.00;;;;;;;28.37;32.58;93310.59;5112279;28;20043;-82
2021/08/21 10:28:56;;;;;;;6.03;3.75;;;;;;;27.65;32.18;93300.59;5111797;28;20051;-87
2021/08/21 10:31:39;;;;;;;4.65;3.55;;;;;;;27.59;31.64;93300.00;5107575;28;20161;-87
2021/08/21 10:34:07;;;;;;;5.20;3.80;;;;;;;27.14;30.52;93298.50;5109710;28;20052;-86
2021/08/21 10:36:41;;;;;;;6.00;3.20;;;;;;;27.12;30.15;93246.09;5111603;28;20124;-87
2021/08/21 10:39:23;;;;;;;6.60;3.85;;;;;;;27.14;32.99;93251.06;5111834;28;20067;-85
2021/08/21 10:41:52;;;;;;;9.48;3.80;;;;;;;28.06;33.09;93301.84;5111278;28;20067;-84
2021/08/21 10:44:50;;;;;;;6.13;3.83;;;;;;;28.17;33.22;93290.94;5099102;28;20052;-85
2021/08/21 10:47:38;;;;;;;6.05;3.72;;;;;;;27.78;32.33;93273.25;5017574;28;20127;-87
2021/08/21 10:50:35;;;;;;;6.80;3.60;;;;;;;27.55;32.25;93301.69;5097434;28;20502;-85
2021/08/21 10:53:06;;;;;;;8.27;4.38;;;;;;;27.17;33.52;93274.16;5074592;28;20047;-89
2021/08/21 10:55:38;;;;;;;9.35;4.15;;;;;;;28.01;33.02;93288.81;5098898;28;20048;-87
2021/08/21 10:58:13;;;;;;;5.93;3.30;;;;;;;27.79;31.56;93253.69;5091109;28;20057;-87
2021/08/21 11:00:48;;;;;;;6.47;3.58;;;;;;;28.17;32.25;93298.84;5091119;28;20385;-87
2021/08/21 11:03:18;;;;;;;6.70;3.50;;;;;;;27.77;31.79;93305.22;5091319;28;20048;-86
2021/08/21 11:05:54;;;;;;;5.00;3.45;;;;;;;28.17;31.24;93296.97;5090822;28;20519;-87
2021/08/21 11:08:22;;;;;;;7.82;3.60;;;;;;;28.10;30.21;93252.56;5090612;28;20105;-88
2021/08/21 11:10:49;;;;;;;7.88;3.55;;;;;;;28.67;28.73;93294.69;5090680;28;20485;-86
2021/08/21 11:13:47;;;;;;;7.22;3.70;;;;;;;28.66;28.97;93291.25;5090574;28;20052;-87
2021/08/21 11:16:15;;;;;;;6.43;3.92;;;;;;;29.05;29.55;93293.00;5090515;28;20079;-85
2021/08/21 11:18:48;;;;;;;5.93;4.15;;;;;;;28.60;29.51;93260.06;5090542;28;20052;-86
2021/08/21 11:21:35;;;;;;;6.03;4.28;;;;;;;28.74;30.75;93289.63;5090792;28;20067;-87
2021/08/21 11:24:02;;;;;;;6.05;4.55;;;;;;;27.76;31.26;93277.28;5109077;28;20424;-86
2021/08/21 11:26:29;;;;;;;7.38;4.47;;;;;;;27.85;31.70;93264.81;5110701;28;20050;-88
2021/08/21 11:29:09;;;;;;;8.30;4.50;;;;;;;28.76;30.29;93278.75;5110637;28;20500;-87